sensor_id;sensor_type;location;lat;lon;timestamp;pressure;altitude;pressure_sealevel;temperature;humidity
21980;BME280;11154;48.558;9.234;2022-08-25T00:00:11;97600.53;;;21.55;86.22
21980;BME280;11154;48.558;9.234;2022-08-25T00:02:13;97594.72;;;21.51;86.45
21980;BME280;11154;48.558;9.234;2022-08-25T00:04:18;97598.34;;;21.45;87.44
21980;BME280;11154;48.558;9.234;2022-08-25T00:06:20;97600.91;;;21.40;87.48
21980;BME280;11154;48.558;9.234;2022-08-25T00:08:22;97607.81;;;21.36;87.38
21980;BME280;11154;48.558;9.234;2022-08-25T00:10:24;97602.00;;;21.33;88.53
21980;BME280;11154;48.558;9.234;2022-08-25T00:12:25;97594.44;;;21.23;88.94
21980;BME280;11154;48.558;9.234;2022-08-25T00:14:30;97602.53;;;20.88;91.96
21980;BME280;11154;48.558;9.234;2022-08-25T00:16:33;97598.91;;;20.76;92.42
21980;BME280;11154;48.558;9.234;2022-08-25T00:18:35;97595.41;;;20.69;93.54
21980;BME280;11154;48.558;9.234;2022-08-25T00:20:37;97591.56;;;20.58;94.41
21980;BME280;11154;48.558;9.234;2022-08-25T00:22:38;97598.84;;;20.58;95.07
21980;BME280;11154;48.558;9.234;2022-08-25T00:24:40;97588.72;;;20.53;95.42
21980;BME280;11154;48.558;9.234;2022-08-25T00:26:45;97585.63;;;20.50;95.18
21980;BME280;11154;48.558;9.234;2022-08-25T00:28:46;97583.97;;;20.49;95.59
21980;BME280;11154;48.558;9.234;2022-08-25T00:30:50;97586.34;;;20.39;97.46
21980;BME280;11154;48.558;9.234;2022-08-25T00:32:51;97593.59;;;20.38;97.28
21980;BME280;11154;48.558;9.234;2022-08-25T00:34:53;97587.03;;;20.28;98.62
21980;BME280;11154;48.558;9.234;2022-08-25T00:36:55;97586.09;;;20.16;99.98
21980;BME280;11154;48.558;9.234;2022-08-25T00:38:56;97588.47;;;20.06;100.00
21980;BME280;11154;48.558;9.234;2022-08-25T00:40:58;97586.19;;;20.03;100.00
21980;BME280;11154;48.558;9.234;2022-08-25T00:43:06;97592.94;;;19.94;100.00
21980;BME280;11154;48.558;9.234;2022-08-25T00:45:08;97577.13;;;19.91;100.00
21980;BME280;11154;48.558;9.234;2022-08-25T00:47:12;97581.72;;;19.84;100.00
21980;BME280;11154;48.558;9.234;2022-08-25T00:49:16;97580.34;;;19.75;100.00
21980;BME280;11154;48.558;9.234;2022-08-25T00:51:24;97583.84;;;19.82;100.00
21980;BME280;11154;48.558;9.234;2022-08-25T00:53:28;97579.50;;;19.75;100.00
21980;BME280;11154;48.558;9.234;2022-08-25T00:55:35;97580.78;;;19.72;100.00
21980;BME280;11154;48.558;9.234;2022-08-25T00:57:42;97580.34;;;19.75;100.00
21980;BME280;11154;48.558;9.234;2022-08-25T00:59:44;97570.16;;;19.77;100.00
21980;BME280;11154;48.558;9.234;2022-08-25T01:01:46;97571.22;;;19.76;100.00
21980;BME280;11154;48.558;9.234;2022-08-25T01:03:50;97567.72;;;19.69;100.00
21980;BME280;11154;48.558;9.234;2022-08-25T01:05:52;97568.31;;;19.71;100.00
21980;BME280;11154;48.558;9.234;2022-08-25T01:07:56;97558.59;;;19.70;100.00
21980;BME280;11154;48.558;9.234;2022-08-25T01:09:58;97557.34;;;19.66;100.00
21980;BME280;11154;48.558;9.234;2022-08-25T01:12:01;97561.28;;;19.70;100.00
21980;BME280;11154;48.558;9.234;2022-08-25T01:14:03;97562.09;;;19.71;100.00
21980;BME280;11154;48.558;9.234;2022-08-25T01:16:06;97555.69;;;19.65;100.00
21980;BME280;11154;48.558;9.234;2022-08-25T01:18:08;97560.28;;;19.65;100.00
21980;BME280;11154;48.558;9.234;2022-08-25T01:20:12;97556.09;;;19.69;100.00
21980;BME280;11154;48.558;9.234;2022-08-25T01:22:15;97550.75;;;19.62;100.00
21980;BME280;11154;48.558;9.234;2022-08-25T01:24:22;97557.44;;;19.54;100.00
21980;BME280;11154;48.558;9.234;2022-08-25T01:26:29;97550.44;;;19.40;100.00
21980;BME280;11154;48.558;9.234;2022-08-25T01:28:31;97558.53;;;19.40;100.00
21980;BME280;11154;48.558;9.234;2022-08-25T01:30:33;97563.13;;;19.39;100.00
21980;BME280;11154;48.558;9.234;2022-08-25T01:32:35;97566.63;;;19.40;100.00
21980;BME280;11154;48.558;9.234;2022-08-25T01:34:40;97569.53;;;19.45;100.00
21980;BME280;11154;48.558;9.234;2022-08-25T01:36:43;97565.75;;;19.46;100.00
21980;BME280;11154;48.558;9.234;2022-08-25T01:38:47;97564.53;;;19.48;100.00
21980;BME280;11154;48.558;9.234;2022-08-25T01:40:48;97569.25;;;19.53;100.00
21980;BME280;11154;48.558;9.234;2022-08-25T01:42:57;97569.88;;;19.55;100.00
21980;BME280;11154;48.558;9.234;2022-08-25T01:45:02;97568.28;;;19.47;100.00
21980;BME280;11154;48.558;9.234;2022-08-25T01:47:05;97563.53;;;19.36;100.00
21980;BME280;11154;48.558;9.234;2022-08-25T01:49:08;97557.31;;;19.36;100.00
21980;BME280;11154;48.558;9.234;2022-08-25T01:51:10;97566.22;;;19.36;100.00
21980;BME280;11154;48.558;9.234;2022-08-25T01:53:18;97560.25;;;19.34;100.00
21980;BME280;11154;48.558;9.234;2022-08-25T01:55:23;97554.63;;;19.29;100.00
21980;BME280;11154;48.558;9.234;2022-08-25T01:57:29;97553.00;;;19.28;100.00
21980;BME280;11154;48.558;9.234;2022-08-25T01:59:30;97558.81;;;19.25;100.00
21980;BME280;11154;48.558;9.234;2022-08-25T02:01:32;97554.88;;;19.28;100.00
21980;BME280;11154;48.558;9.234;2022-08-25T02:03:36;97562.31;;;19.32;100.00
21980;BME280;11154;48.558;9.234;2022-08-25T02:05:39;97554.69;;;19.23;100.00
21980;BME280;11154;48.558;9.234;2022-08-25T02:07:41;97561.75;;;19.17;100.00
21980;BME280;11154;48.558;9.234;2022-08-25T02:09:43;97563.44;;;19.12;100.00
21980;BME280;11154;48.558;9.234;2022-08-25T02:11:46;97559.28;;;19.16;100.00
21980;BME280;11154;48.558;9.234;2022-08-25T02:13:48;97564.25;;;19.19;100.00
21980;BME280;11154;48.558;9.234;2022-08-25T02:15:53;97565.13;;;19.13;100.00
21980;BME280;11154;48.558;9.234;2022-08-25T02:17:55;97569.88;;;19.11;100.00
21980;BME280;11154;48.558;9.234;2022-08-25T02:19:57;97572.78;;;19.09;100.00
21980;BME280;11154;48.558;9.234;2022-08-25T02:21:59;97568.44;;;19.08;100.00
21980;BME280;11154;48.558;9.234;2022-08-25T02:24:02;97570.91;;;19.10;100.00
21980;BME280;11154;48.558;9.234;2022-08-25T02:26:04;97565.53;;;19.03;100.00
21980;BME280;11154;48.558;9.234;2022-08-25T02:28:07;97566.13;;;19.05;100.00
21980;BME280;11154;48.558;9.234;2022-08-25T02:30:10;97564.50;;;18.98;100.00
21980;BME280;11154;48.558;9.234;2022-08-25T02:32:13;97556.81;;;19.01;100.00
21980;BME280;11154;48.558;9.234;2022-08-25T02:34:14;97566.16;;;18.99;100.00
21980;BME280;11154;48.558;9.234;2022-08-25T02:36:16;97570.06;;;19.03;100.00
21980;BME280;11154;48.558;9.234;2022-08-25T02:38:18;97563.28;;;18.94;100.00
21980;BME280;11154;48.558;9.234;2022-08-25T02:40:20;97567.25;;;18.85;100.00
21980;BME280;11154;48.558;9.234;2022-08-25T02:42:22;97561.63;;;18.86;100.00
21980;BME280;11154;48.558;9.234;2022-08-25T02:44:25;97567.00;;;18.86;100.00
21980;BME280;11154;48.558;9.234;2022-08-25T02:46:27;97563.09;;;18.76;100.00
21980;BME280;11154;48.558;9.234;2022-08-25T02:48:30;97558.13;;;18.86;100.00
21980;BME280;11154;48.558;9.234;2022-08-25T02:50:31;97569.50;;;18.88;100.00
21980;BME280;11154;48.558;9.234;2022-08-25T02:52:34;97564.09;;;18.94;100.00
21980;BME280;11154;48.558;9.234;2022-08-25T02:54:35;97567.41;;;18.96;100.00
21980;BME280;11154;48.558;9.234;2022-08-25T02:56:37;97571.38;;;18.94;100.00
21980;BME280;11154;48.558;9.234;2022-08-25T02:58:40;97571.97;;;18.96;100.00
21980;BME280;11154;48.558;9.234;2022-08-25T03:00:43;97573.44;;;18.92;100.00
21980;BME280;11154;48.558;9.234;2022-08-25T03:02:45;97566.78;;;18.94;100.00
21980;BME280;11154;48.558;9.234;2022-08-25T03:04:47;97566.16;;;18.92;100.00
21980;BME280;11154;48.558;9.234;2022-08-25T03:06:49;97558.53;;;18.83;100.00
21980;BME280;11154;48.558;9.234;2022-08-25T03:08:51;97561.22;;;18.89;100.00
21980;BME280;11154;48.558;9.234;2022-08-25T03:10:53;97568.91;;;18.86;100.00
21980;BME280;11154;48.558;9.234;2022-08-25T03:12:55;97554.78;;;18.84;100.00
21980;BME280;11154;48.558;9.234;2022-08-25T03:14:56;97567.66;;;18.82;100.00
21980;BME280;11154;48.558;9.234;2022-08-25T03:16:59;97567.00;;;18.86;100.00
21980;BME280;11154;48.558;9.234;2022-08-25T03:19:02;97571.38;;;18.87;100.00
21980;BME280;11154;48.558;9.234;2022-08-25T03:21:04;97564.72;;;18.96;100.00
21980;BME280;11154;48.558;9.234;2022-08-25T03:23:06;97561.00;;;18.91;100.00
21980;BME280;11154;48.558;9.234;2022-08-25T03:25:08;97557.50;;;18.84;100.00
21980;BME280;11154;48.558;9.234;2022-08-25T03:27:28;97565.56;;;18.84;100.00
21980;BME280;11154;48.558;9.234;2022-08-25T03:29:31;97567.66;;;18.82;100.00
21980;BME280;11154;48.558;9.234;2022-08-25T03:31:34;97563.50;;;18.80;100.00
21980;BME280;11154;48.558;9.234;2022-08-25T03:33:37;97560.44;;;18.70;100.00
21980;BME280;11154;48.558;9.234;2022-08-25T03:35:39;97567.69;;;18.69;100.00
21980;BME280;11154;48.558;9.234;2022-08-25T03:37:41;97564.34;;;18.74;100.00
21980;BME280;11154;48.558;9.234;2022-08-25T03:39:43;97561.47;;;18.75;100.00
21980;BME280;11154;48.558;9.234;2022-08-25T03:41:45;97562.69;;;18.73;100.00
21980;BME280;11154;48.558;9.234;2022-08-25T03:43:47;97564.97;;;18.69;100.00
21980;BME280;11154;48.558;9.234;2022-08-25T03:45:49;97563.34;;;18.68;100.00
21980;BME280;11154;48.558;9.234;2022-08-25T03:47:51;97559.59;;;18.69;100.00
21980;BME280;11154;48.558;9.234;2022-08-25T03:49:54;97553.16;;;18.70;100.00
21980;BME280;11154;48.558;9.234;2022-08-25T03:51:56;97552.75;;;18.73;100.00
21980;BME280;11154;48.558;9.234;2022-08-25T03:53:59;97553.78;;;18.72;100.00
21980;BME280;11154;48.558;9.234;2022-08-25T03:56:01;97547.59;;;18.65;100.00
21980;BME280;11154;48.558;9.234;2022-08-25T03:58:03;97546.13;;;18.69;100.00
21980;BME280;11154;48.558;9.234;2022-08-25T04:00:08;97548.63;;;18.64;100.00
21980;BME280;11154;48.558;9.234;2022-08-25T04:02:11;97554.44;;;18.61;100.00
21980;BME280;11154;48.558;9.234;2022-08-25T04:04:14;97547.81;;;18.57;100.00
21980;BME280;11154;48.558;9.234;2022-08-25T04:06:18;97540.38;;;18.53;100.00
21980;BME280;11154;48.558;9.234;2022-08-25T04:08:20;97537.25;;;18.56;100.00
21980;BME280;11154;48.558;9.234;2022-08-25T04:10:22;97535.59;;;18.55;100.00
21980;BME280;11154;48.558;9.234;2022-08-25T04:12:24;97540.97;;;18.55;100.00
21980;BME280;11154;48.558;9.234;2022-08-25T04:14:26;97538.50;;;18.47;100.00
21980;BME280;11154;48.558;9.234;2022-08-25T04:16:29;97556.13;;;18.49;100.00
21980;BME280;11154;48.558;9.234;2022-08-25T04:18:31;97548.25;;;18.48;100.00
21980;BME280;11154;48.558;9.234;2022-08-25T04:20:33;97555.31;;;18.42;100.00
21980;BME280;11154;48.558;9.234;2022-08-25T04:22:37;97569.81;;;18.41;100.00
21980;BME280;11154;48.558;9.234;2022-08-25T04:24:39;97570.66;;;18.35;100.00
21980;BME280;11154;48.558;9.234;2022-08-25T04:26:42;97571.06;;;18.32;100.00
21980;BME280;11154;48.558;9.234;2022-08-25T04:28:45;97564.84;;;18.25;100.00
21980;BME280;11154;48.558;9.234;2022-08-25T04:30:47;97566.50;;;18.26;100.00
21980;BME280;11154;48.558;9.234;2022-08-25T04:32:49;97555.09;;;18.24;100.00
21980;BME280;11154;48.558;9.234;2022-08-25T04:34:51;97559.66;;;18.24;100.00
21980;BME280;11154;48.558;9.234;2022-08-25T04:36:53;97555.50;;;18.28;100.00
21980;BME280;11154;48.558;9.234;2022-08-25T04:38:56;97563.97;;;18.18;100.00
21980;BME280;11154;48.558;9.234;2022-08-25T04:40:59;97563.19;;;18.24;100.00
21980;BME280;11154;48.558;9.234;2022-08-25T04:43:02;97557.78;;;18.18;100.00
21980;BME280;11154;48.558;9.234;2022-08-25T04:45:05;97565.28;;;18.22;100.00
21980;BME280;11154;48.558;9.234;2022-08-25T04:47:06;97564.84;;;18.25;100.00
21980;BME280;11154;48.558;9.234;2022-08-25T04:49:08;97561.97;;;18.27;100.00
21980;BME280;11154;48.558;9.234;2022-08-25T04:51:11;97562.78;;;18.21;100.00
21980;BME280;11154;48.558;9.234;2022-08-25T04:53:14;97556.56;;;18.27;100.00
21980;BME280;11154;48.558;9.234;2022-08-25T04:55:17;97563.19;;;18.31;100.00
21980;BME280;11154;48.558;9.234;2022-08-25T04:57:19;97565.88;;;18.31;100.00
21980;BME280;11154;48.558;9.234;2022-08-25T04:59:21;97575.22;;;18.28;100.00
21980;BME280;11154;48.558;9.234;2022-08-25T05:01:23;97570.22;;;18.19;100.00
21980;BME280;11154;48.558;9.234;2022-08-25T05:03:25;97568.19;;;18.21;100.00
21980;BME280;11154;48.558;9.234;2022-08-25T05:05:27;97573.94;;;18.24;100.00
21980;BME280;11154;48.558;9.234;2022-08-25T05:07:29;97570.66;;;18.22;100.00
21980;BME280;11154;48.558;9.234;2022-08-25T05:09:31;97570.41;;;18.17;100.00
21980;BME280;11154;48.558;9.234;2022-08-25T05:11:34;97569.78;;;18.15;100.00
21980;BME280;11154;48.558;9.234;2022-08-25T05:13:36;97564.44;;;18.22;100.00
21980;BME280;11154;48.558;9.234;2022-08-25T05:15:38;97561.50;;;18.17;100.00
21980;BME280;11154;48.558;9.234;2022-08-25T05:17:51;97553.63;;;18.15;100.00
21980;BME280;11154;48.558;9.234;2022-08-25T05:19:53;97553.44;;;18.17;100.00
21980;BME280;11154;48.558;9.234;2022-08-25T05:21:54;97551.59;;;18.17;100.00
21980;BME280;11154;48.558;9.234;2022-08-25T05:23:57;97549.53;;;18.19;100.00
21980;BME280;11154;48.558;9.234;2022-08-25T05:26:03;97559.44;;;18.19;100.00
21980;BME280;11154;48.558;9.234;2022-08-25T05:28:07;97556.56;;;18.20;100.00
21980;BME280;11154;48.558;9.234;2022-08-25T05:30:10;97552.03;;;18.21;100.00
21980;BME280;11154;48.558;9.234;2022-08-25T05:32:12;97556.72;;;18.12;100.00
21980;BME280;11154;48.558;9.234;2022-08-25T05:34:13;97560.69;;;18.16;100.00
21980;BME280;11154;48.558;9.234;2022-08-25T05:36:16;97554.72;;;18.21;100.00
21980;BME280;11154;48.558;9.234;2022-08-25T05:38:18;97555.53;;;18.21;100.00
21980;BME280;11154;48.558;9.234;2022-08-25T05:40:20;97560.91;;;18.21;100.00
21980;BME280;11154;48.558;9.234;2022-08-25T05:42:22;97551.59;;;18.30;100.00
21980;BME280;11154;48.558;9.234;2022-08-25T05:44:25;97556.16;;;18.36;100.00
21980;BME280;11154;48.558;9.234;2022-08-25T05:46:27;97546.81;;;18.39;100.00
21980;BME280;11154;48.558;9.234;2022-08-25T05:48:29;97543.06;;;18.46;100.00
21980;BME280;11154;48.558;9.234;2022-08-25T05:50:31;97551.97;;;18.53;100.00
21980;BME280;11154;48.558;9.234;2022-08-25T05:52:32;97541.59;;;18.57;100.00
21980;BME280;11154;48.558;9.234;2022-08-25T05:54:34;97539.50;;;18.65;100.00
21980;BME280;11154;48.558;9.234;2022-08-25T05:56:36;97537.84;;;18.64;100.00
21980;BME280;11154;48.558;9.234;2022-08-25T05:58:37;97543.88;;;18.60;100.00
21980;BME280;11154;48.558;9.234;2022-08-25T06:00:40;97538.28;;;18.61;100.00
21980;BME280;11154;48.558;9.234;2022-08-25T06:02:42;97539.28;;;18.73;100.00
21980;BME280;11154;48.558;9.234;2022-08-25T06:04:45;97548.00;;;18.75;100.00
21980;BME280;11154;48.558;9.234;2022-08-25T06:06:47;97544.25;;;18.76;100.00
21980;BME280;11154;48.558;9.234;2022-08-25T06:08:52;97547.56;;;18.78;100.00
21980;BME280;11154;48.558;9.234;2022-08-25T06:10:54;97544.47;;;18.75;100.00
21980;BME280;11154;48.558;9.234;2022-08-25T06:12:55;97539.91;;;18.69;100.00
21980;BME280;11154;48.558;9.234;2022-08-25T06:14:57;97543.84;;;18.79;100.00
21980;BME280;11154;48.558;9.234;2022-08-25T06:17:00;97546.94;;;18.83;100.00
21980;BME280;11154;48.558;9.234;2022-08-25T06:19:02;97544.25;;;18.76;100.00
21980;BME280;11154;48.558;9.234;2022-08-25T06:21:09;97547.75;;;18.83;100.00
21980;BME280;11154;48.558;9.234;2022-08-25T06:23:12;97546.09;;;18.88;100.00
21980;BME280;11154;48.558;9.234;2022-08-25T06:25:19;97549.00;;;18.87;100.00
21980;BME280;11154;48.558;9.234;2022-08-25T06:27:21;97548.16;;;18.93;100.00
21980;BME280;11154;48.558;9.234;2022-08-25T06:29:23;97547.28;;;18.99;100.00
21980;BME280;11154;48.558;9.234;2022-08-25T06:31:25;97541.91;;;18.99;100.00
21980;BME280;11154;48.558;9.234;2022-08-25T06:33:28;97548.97;;;19.00;100.00
21980;BME280;11154;48.558;9.234;2022-08-25T06:35:30;97544.78;;;19.04;100.00
21980;BME280;11154;48.558;9.234;2022-08-25T06:37:31;97538.69;;;19.28;100.00
21980;BME280;11154;48.558;9.234;2022-08-25T06:39:33;97547.63;;;19.28;100.00
21980;BME280;11154;48.558;9.234;2022-08-25T06:41:35;97536.38;;;19.38;100.00
21980;BME280;11154;48.558;9.234;2022-08-25T06:43:39;97544.19;;;19.46;100.00
21980;BME280;11154;48.558;9.234;2022-08-25T06:45:41;97532.75;;;19.50;100.00
21980;BME280;11154;48.558;9.234;2022-08-25T06:47:44;97546.00;;;19.52;100.00
21980;BME280;11154;48.558;9.234;2022-08-25T06:49:47;97538.72;;;19.58;100.00
21980;BME280;11154;48.558;9.234;2022-08-25T06:51:49;97535.19;;;19.58;100.00
21980;BME280;11154;48.558;9.234;2022-08-25T06:53:51;97539.50;;;19.65;100.00
21980;BME280;11154;48.558;9.234;2022-08-25T06:55:56;97533.47;;;19.70;100.00
21980;BME280;11154;48.558;9.234;2022-08-25T06:57:57;97528.19;;;19.81;100.00
21980;BME280;11154;48.558;9.234;2022-08-25T06:59:59;97537.50;;;19.85;100.00
21980;BME280;11154;48.558;9.234;2022-08-25T07:02:02;97526.88;;;19.97;100.00
21980;BME280;11154;48.558;9.234;2022-08-25T07:04:04;97523.06;;;20.04;100.00
21980;BME280;11154;48.558;9.234;2022-08-25T07:06:08;97521.13;;;20.11;100.00
21980;BME280;11154;48.558;9.234;2022-08-25T07:08:10;97530.00;;;20.18;100.00
21980;BME280;11154;48.558;9.234;2022-08-25T07:10:12;97519.13;;;20.25;100.00
21980;BME280;11154;48.558;9.234;2022-08-25T07:12:14;97526.53;;;20.35;100.00
21980;BME280;11154;48.558;9.234;2022-08-25T07:14:16;97513.09;;;20.47;100.00
21980;BME280;11154;48.558;9.234;2022-08-25T07:16:19;97519.25;;;20.54;100.00
21980;BME280;11154;48.558;9.234;2022-08-25T07:18:21;97515.00;;;20.64;100.00
21980;BME280;11154;48.558;9.234;2022-08-25T07:20:23;97514.88;;;20.77;100.00
21980;BME280;11154;48.558;9.234;2022-08-25T07:22:26;97511.44;;;20.88;100.00
21980;BME280;11154;48.558;9.234;2022-08-25T07:24:27;97507.75;;;21.01;100.00
21980;BME280;11154;48.558;9.234;2022-08-25T07:26:31;97501.94;;;21.15;100.00
21980;BME280;11154;48.558;9.234;2022-08-25T07:28:34;97503.66;;;21.27;100.00
21980;BME280;11154;48.558;9.234;2022-08-25T07:30:35;97506.63;;;21.37;100.00
21980;BME280;11154;48.558;9.234;2022-08-25T07:32:37;97501.50;;;21.47;100.00
21980;BME280;11154;48.558;9.234;2022-08-25T07:34:39;97503.09;;;21.55;100.00
21980;BME280;11154;48.558;9.234;2022-08-25T07:36:58;97499.59;;;21.66;100.00
21980;BME280;11154;48.558;9.234;2022-08-25T07:39:02;97494.91;;;21.73;99.78
21980;BME280;11154;48.558;9.234;2022-08-25T07:41:05;97505.41;;;21.80;99.74
21980;BME280;11154;48.558;9.234;2022-08-25T07:43:06;97500.13;;;21.85;98.76
21980;BME280;11154;48.558;9.234;2022-08-25T07:45:10;97498.81;;;21.88;98.49
21980;BME280;11154;48.558;9.234;2022-08-25T07:47:12;97493.69;;;21.98;98.75
21980;BME280;11154;48.558;9.234;2022-08-25T07:49:15;97499.69;;;22.11;98.43
21980;BME280;11154;48.558;9.234;2022-08-25T07:51:17;97499.59;;;22.18;98.22
21980;BME280;11154;48.558;9.234;2022-08-25T07:53:18;97503.72;;;22.20;97.12
21980;BME280;11154;48.558;9.234;2022-08-25T07:55:22;97499.97;;;22.33;96.60
21980;BME280;11154;48.558;9.234;2022-08-25T07:57:25;97502.22;;;22.36;95.33
21980;BME280;11154;48.558;9.234;2022-08-25T07:59:27;97496.31;;;22.39;95.50
21980;BME280;11154;48.558;9.234;2022-08-25T08:01:29;97495.88;;;22.42;95.10
21980;BME280;11154;48.558;9.234;2022-08-25T08:03:31;97503.16;;;22.52;94.80
21980;BME280;11154;48.558;9.234;2022-08-25T08:05:34;97498.22;;;22.50;95.06
21980;BME280;11154;48.558;9.234;2022-08-25T08:07:37;97508.69;;;22.57;95.60
21980;BME280;11154;48.558;9.234;2022-08-25T08:09:38;97496.78;;;22.58;94.75
21980;BME280;11154;48.558;9.234;2022-08-25T08:11:42;97494.94;;;22.59;93.55
21980;BME280;11154;48.558;9.234;2022-08-25T08:13:44;97503.41;;;22.62;93.34
21980;BME280;11154;48.558;9.234;2022-08-25T08:15:46;97500.56;;;22.69;93.64
21980;BME280;11154;48.558;9.234;2022-08-25T08:17:48;97498.31;;;22.77;92.70
21980;BME280;11154;48.558;9.234;2022-08-25T08:19:50;97495.69;;;22.82;92.05
21980;BME280;11154;48.558;9.234;2022-08-25T08:21:52;97501.34;;;22.92;92.00
21980;BME280;11154;48.558;9.234;2022-08-25T08:23:54;97494.28;;;22.91;91.10
21980;BME280;11154;48.558;9.234;2022-08-25T08:25:56;97502.06;;;22.88;90.87
21980;BME280;11154;48.558;9.234;2022-08-25T08:27:59;97495.94;;;22.92;91.16
21980;BME280;11154;48.558;9.234;2022-08-25T08:30:02;97494.03;;;22.93;91.35
21980;BME280;11154;48.558;9.234;2022-08-25T08:32:08;97492.63;;;23.02;91.80
21980;BME280;11154;48.558;9.234;2022-08-25T08:34:12;97494.63;;;23.06;91.57
21980;BME280;11154;48.558;9.234;2022-08-25T08:36:14;97487.91;;;23.09;90.51
21980;BME280;11154;48.558;9.234;2022-08-25T08:38:16;97495.31;;;23.13;90.31
21980;BME280;11154;48.558;9.234;2022-08-25T08:40:19;97489.28;;;23.23;90.48
21980;BME280;11154;48.558;9.234;2022-08-25T08:42:30;97490.28;;;23.33;89.88
21980;BME280;11154;48.558;9.234;2022-08-25T08:44:44;97490.53;;;23.31;88.98
21980;BME280;11154;48.558;9.234;2022-08-25T08:46:57;97488.16;;;23.35;89.12
21980;BME280;11154;48.558;9.234;2022-08-25T08:49:05;97483.75;;;23.45;90.37
21980;BME280;11154;48.558;9.234;2022-08-25T08:51:18;97482.66;;;23.58;89.30
21980;BME280;11154;48.558;9.234;2022-08-25T08:53:23;97486.00;;;23.65;89.52
21980;BME280;11154;48.558;9.234;2022-08-25T08:55:29;97471.94;;;23.68;89.22
21980;BME280;11154;48.558;9.234;2022-08-25T08:57:34;97471.59;;;23.76;88.71
21980;BME280;11154;48.558;9.234;2022-08-25T08:59:47;97477.59;;;23.78;88.27
21980;BME280;11154;48.558;9.234;2022-08-25T09:01:51;97473.00;;;23.78;87.59
21980;BME280;11154;48.558;9.234;2022-08-25T09:04:02;97476.63;;;23.84;88.06
21980;BME280;11154;48.558;9.234;2022-08-25T09:06:11;97475.47;;;23.96;88.38
21980;BME280;11154;48.558;9.234;2022-08-25T09:08:14;97479.66;;;24.03;87.28
21980;BME280;11154;48.558;9.234;2022-08-25T09:10:18;97480.91;;;24.12;86.69
21980;BME280;11154;48.558;9.234;2022-08-25T09:12:27;97472.28;;;24.15;85.00
21980;BME280;11154;48.558;9.234;2022-08-25T09:14:50;97477.78;;;24.20;85.69
21980;BME280;11154;48.558;9.234;2022-08-25T09:17:00;97468.38;;;24.28;85.44
21980;BME280;11154;48.558;9.234;2022-08-25T09:19:12;97472.34;;;24.37;85.02
21980;BME280;11154;48.558;9.234;2022-08-25T09:21:24;97469.47;;;24.43;85.24
21980;BME280;11154;48.558;9.234;2022-08-25T09:23:36;97479.88;;;24.46;81.77
21980;BME280;11154;48.558;9.234;2022-08-25T09:25:50;97474.97;;;24.48;81.35
21980;BME280;11154;48.558;9.234;2022-08-25T09:28:02;97475.06;;;24.53;82.42
21980;BME280;11154;48.558;9.234;2022-08-25T09:30:10;97466.72;;;24.60;80.61
21980;BME280;11154;48.558;9.234;2022-08-25T09:32:12;97475.22;;;24.63;78.95
21980;BME280;11154;48.558;9.234;2022-08-25T09:34:18;97468.75;;;24.69;78.80
21980;BME280;11154;48.558;9.234;2022-08-25T09:36:20;97472.06;;;24.71;77.30
21980;BME280;11154;48.558;9.234;2022-08-25T09:38:23;97464.56;;;24.78;78.01
21980;BME280;11154;48.558;9.234;2022-08-25T09:40:26;97468.97;;;24.84;79.46
21980;BME280;11154;48.558;9.234;2022-08-25T09:42:46;97467.66;;;24.86;79.92
21980;BME280;11154;48.558;9.234;2022-08-25T09:44:48;97467.66;;;24.86;76.15
21980;BME280;11154;48.558;9.234;2022-08-25T09:46:58;97465.00;;;24.91;75.49
21980;BME280;11154;48.558;9.234;2022-08-25T09:49:10;97464.28;;;25.01;78.70
21980;BME280;11154;48.558;9.234;2022-08-25T09:51:18;97470.25;;;24.98;76.08
21980;BME280;11154;48.558;9.234;2022-08-25T09:53:21;97459.38;;;24.98;77.40
21980;BME280;11154;48.558;9.234;2022-08-25T09:55:28;97454.75;;;24.98;77.67
21980;BME280;11154;48.558;9.234;2022-08-25T09:57:33;97445.50;;;24.99;77.88
21980;BME280;11154;48.558;9.234;2022-08-25T09:59:36;97440.78;;;25.11;78.54
21980;BME280;11154;48.558;9.234;2022-08-25T10:01:46;97446.81;;;25.13;72.61
21980;BME280;11154;48.558;9.234;2022-08-25T10:03:56;97451.22;;;25.19;71.92
21980;BME280;11154;48.558;9.234;2022-08-25T10:06:02;97449.94;;;25.27;70.28
21980;BME280;11154;48.558;9.234;2022-08-25T10:08:10;97443.44;;;25.28;69.47
21980;BME280;11154;48.558;9.234;2022-08-25T10:10:16;97445.84;;;25.50;72.57
21980;BME280;11154;48.558;9.234;2022-08-25T10:12:23;97431.75;;;25.58;65.11
21980;BME280;11154;48.558;9.234;2022-08-25T10:14:32;97437.94;;;25.75;64.73
21980;BME280;11154;48.558;9.234;2022-08-25T10:16:35;97431.00;;;25.89;64.45
21980;BME280;11154;48.558;9.234;2022-08-25T10:18:37;97435.50;;;26.05;67.22
21980;BME280;11154;48.558;9.234;2022-08-25T10:20:40;97430.66;;;26.12;66.86
21980;BME280;11154;48.558;9.234;2022-08-25T10:22:43;97428.75;;;26.13;64.45
21980;BME280;11154;48.558;9.234;2022-08-25T10:24:45;97429.78;;;26.07;61.77
21980;BME280;11154;48.558;9.234;2022-08-25T10:26:54;97424.31;;;26.07;61.32
21980;BME280;11154;48.558;9.234;2022-08-25T10:29:29;97409.34;;;26.09;61.54
21980;BME280;11154;48.558;9.234;2022-08-25T10:31:35;97416.00;;;26.23;61.99
21980;BME280;11154;48.558;9.234;2022-08-25T10:33:49;97425.59;;;26.30;61.12
21980;BME280;11154;48.558;9.234;2022-08-25T10:36:02;97419.19;;;26.10;60.53
21980;BME280;11154;48.558;9.234;2022-08-25T10:38:14;97422.84;;;25.94;60.70
21980;BME280;11154;48.558;9.234;2022-08-25T10:40:22;97405.34;;;25.85;61.30
21980;BME280;11154;48.558;9.234;2022-08-25T10:42:33;97402.03;;;25.78;61.63
21980;BME280;11154;48.558;9.234;2022-08-25T10:44:41;97392.19;;;25.77;63.61
21980;BME280;11154;48.558;9.234;2022-08-25T10:47:21;97402.03;;;25.78;63.67
21980;BME280;11154;48.558;9.234;2022-08-25T10:49:28;97396.56;;;25.78;63.75